sensor_id;sensor_type;location;lat;lon;timestamp;pressure;altitude;pressure_sealevel;temperature;humidity
62710;BME280;48770;51.624;5.886;2023-03-13T00:00:29;100150.72;;;20.47;37.12
62710;BME280;48770;51.624;5.886;2023-03-13T00:02:55;100138.03;;;20.46;36.73
62710;BME280;48770;51.624;5.886;2023-03-13T00:05:20;100136.41;;;20.45;36.67
62710;BME280;48770;51.624;5.886;2023-03-13T00:07:45;100135.63;;;20.44;36.92
62710;BME280;48770;51.624;5.886;2023-03-13T00:10:10;100122.91;;;20.43;36.93
62710;BME280;48770;51.624;5.886;2023-03-13T00:12:36;100116.53;;;20.43;36.77
62710;BME280;48770;51.624;5.886;2023-03-13T00:15:02;100108.22;;;20.43;36.81
62710;BME280;48770;51.624;5.886;2023-03-13T00:17:27;100091.91;;;20.41;37.02
62710;BME280;48770;51.624;5.886;2023-03-13T00:19:53;100091.13;;;20.41;36.73
62710;BME280;48770;51.624;5.886;2023-03-13T00:22:20;100085.91;;;20.39;36.79
62710;BME280;48770;51.624;5.886;2023-03-13T00:24:45;100083.13;;;20.39;36.79
62710;BME280;48770;51.624;5.886;2023-03-13T00:27:10;100074.38;;;20.37;36.83
62710;BME280;48770;51.624;5.886;2023-03-13T00:29:36;100066.03;;;20.37;36.82
62710;BME280;48770;51.624;5.886;2023-03-13T00:32:01;100059.69;;;20.37;36.80
62710;BME280;48770;51.624;5.886;2023-03-13T00:34:26;100065.59;;;20.35;36.79
62710;BME280;48770;51.624;5.886;2023-03-13T00:36:53;100056.09;;;20.36;36.83
62710;BME280;48770;51.624;5.886;2023-03-13T00:39:19;100056.09;;;20.36;36.78
62710;BME280;48770;51.624;5.886;2023-03-13T00:41:45;100052.53;;;20.36;36.86
62710;BME280;48770;51.624;5.886;2023-03-13T00:44:10;100048.13;;;20.35;36.74
62710;BME280;48770;51.624;5.886;2023-03-13T00:46:36;100048.13;;;20.35;36.85
62710;BME280;48770;51.624;5.886;2023-03-13T00:49:02;100042.97;;;20.33;36.80
62710;BME280;48770;51.624;5.886;2023-03-13T00:51:27;100035.44;;;20.33;36.90
62710;BME280;48770;51.624;5.886;2023-03-13T00:53:55;100033.03;;;20.32;36.75
62710;BME280;48770;51.624;5.886;2023-03-13T00:56:20;100023.91;;;20.31;36.68
62710;BME280;48770;51.624;5.886;2023-03-13T00:58:47;100018.72;;;20.30;36.49
62710;BME280;48770;51.624;5.886;2023-03-13T01:03:46;100006.78;;;20.29;36.87
62710;BME280;48770;51.624;5.886;2023-03-13T01:06:14;100000.41;;;20.29;36.73
62710;BME280;48770;51.624;5.886;2023-03-13T01:08:40;99996.03;;;20.28;36.63
62710;BME280;48770;51.624;5.886;2023-03-13T01:11:08;99986.91;;;20.27;36.60
62710;BME280;48770;51.624;5.886;2023-03-13T01:13:34;99991.66;;;20.27;36.86
62710;BME280;48770;51.624;5.886;2023-03-13T01:16:08;99978.94;;;20.26;36.87
62710;BME280;48770;51.624;5.886;2023-03-13T01:18:35;99972.59;;;20.25;36.85
62710;BME280;48770;51.624;5.886;2023-03-13T01:21:02;99963.47;;;20.25;36.81
62710;BME280;48770;51.624;5.886;2023-03-13T01:23:27;99952.38;;;20.25;37.00
62710;BME280;48770;51.624;5.886;2023-03-13T01:25:54;99948.00;;;20.24;36.88
62710;BME280;48770;51.624;5.886;2023-03-13T01:28:20;99940.84;;;20.23;36.82
62710;BME280;48770;51.624;5.886;2023-03-13T01:30:45;99926.16;;;20.22;36.73
62710;BME280;48770;51.624;5.886;2023-03-13T01:33:10;99924.94;;;20.20;37.05
62710;BME280;48770;51.624;5.886;2023-03-13T01:35:36;99918.56;;;20.19;36.81
62710;BME280;48770;51.624;5.886;2023-03-13T01:38:01;99914.19;;;20.18;37.00
62710;BME280;48770;51.624;5.886;2023-03-13T01:40:26;99909.00;;;20.17;37.00
62710;BME280;48770;51.624;5.886;2023-03-13T01:48:15;99893.09;;;20.14;37.07
62710;BME280;48770;51.624;5.886;2023-03-13T01:50:40;99883.59;;;20.15;36.99
62710;BME280;48770;51.624;5.886;2023-03-13T01:53:06;99882.38;;;20.12;37.04
62710;BME280;48770;51.624;5.886;2023-03-13T01:55:31;99872.06;;;20.13;36.83
62710;BME280;48770;51.624;5.886;2023-03-13T01:57:57;99880.41;;;20.13;36.82
62710;BME280;48770;51.624;5.886;2023-03-13T02:00:26;99862.16;;;20.12;36.87
62710;BME280;48770;51.624;5.886;2023-03-13T02:02:55;99865.72;;;20.12;36.75
62710;BME280;48770;51.624;5.886;2023-03-13T02:05:24;99862.16;;;20.12;36.96
62710;BME280;48770;51.624;5.886;2023-03-13T02:07:58;99856.97;;;20.10;36.81
62710;BME280;48770;51.624;5.886;2023-03-13T02:10:25;99841.50;;;20.09;36.78
62710;BME280;48770;51.624;5.886;2023-03-13T02:12:52;99836.75;;;20.10;36.96
62710;BME280;48770;51.624;5.886;2023-03-13T02:15:20;99829.59;;;20.09;37.03
62710;BME280;48770;51.624;5.886;2023-03-13T02:17:47;99823.25;;;20.08;36.79
62710;BME280;48770;51.624;5.886;2023-03-13T02:20:14;99824.84;;;20.09;36.94
62710;BME280;48770;51.624;5.886;2023-03-13T02:28:12;99802.97;;;20.04;37.00
62710;BME280;48770;51.624;5.886;2023-03-13T02:30:41;99799.34;;;20.03;37.01
62710;BME280;48770;51.624;5.886;2023-03-13T02:33:08;99794.63;;;20.04;37.01
62710;BME280;48770;51.624;5.886;2023-03-13T02:35:33;99779.94;;;20.03;37.04
62710;BME280;48770;51.624;5.886;2023-03-13T02:38:03;99758.91;;;20.02;37.09
62710;BME280;48770;51.624;5.886;2023-03-13T02:40:37;99751.75;;;20.01;37.13
62710;BME280;48770;51.624;5.886;2023-03-13T02:43:07;99735.50;;;20.00;37.01
62710;BME280;48770;51.624;5.886;2023-03-13T02:45:33;99730.75;;;20.00;37.13
62710;BME280;48770;51.624;5.886;2023-03-13T02:47:59;99734.31;;;20.01;36.95
62710;BME280;48770;51.624;5.886;2023-03-13T02:50:24;99737.47;;;19.99;37.19
62710;BME280;48770;51.624;5.886;2023-03-13T02:52:55;99744.63;;;20.00;37.03
62710;BME280;48770;51.624;5.886;2023-03-13T02:55:31;99738.22;;;19.96;37.11
62710;BME280;48770;51.624;5.886;2023-03-13T02:57:59;99745.38;;;19.97;37.13
62710;BME280;48770;51.624;5.886;2023-03-13T03:00:24;99734.25;;;19.97;37.08
62710;BME280;48770;51.624;5.886;2023-03-13T03:02:52;99734.25;;;19.97;37.21
62710;BME280;48770;51.624;5.886;2023-03-13T03:05:18;99760.47;;;20.00;37.25
62710;BME280;48770;51.624;5.886;2023-03-13T03:07:44;99734.25;;;19.97;37.18
62710;BME280;48770;51.624;5.886;2023-03-13T03:10:10;99733.47;;;19.97;37.04
62710;BME280;48770;51.624;5.886;2023-03-13T03:12:35;99740.19;;;19.96;37.13
62710;BME280;48770;51.624;5.886;2023-03-13T03:15:01;99744.56;;;19.97;37.13
62710;BME280;48770;51.624;5.886;2023-03-13T03:17:28;99743.75;;;19.96;37.14
62710;BME280;48770;51.624;5.886;2023-03-13T03:19:54;99747.72;;;19.95;37.13
62710;BME280;48770;51.624;5.886;2023-03-13T03:22:19;99750.47;;;19.95;37.11
62710;BME280;48770;51.624;5.886;2023-03-13T03:24:44;99737.78;;;19.94;37.42
62710;BME280;48770;51.624;5.886;2023-03-13T03:27:09;99737.00;;;19.94;37.38
62710;BME280;48770;51.624;5.886;2023-03-13T03:29:35;99741.72;;;19.93;37.13
62710;BME280;48770;51.624;5.886;2023-03-13T03:32:00;99738.97;;;19.93;37.18
62710;BME280;48770;51.624;5.886;2023-03-13T03:34:25;99719.91;;;19.92;36.66
62710;BME280;48770;51.624;5.886;2023-03-13T03:36:51;99727.88;;;19.93;37.18
62710;BME280;48770;51.624;5.886;2023-03-13T03:39:16;99723.13;;;19.94;37.37
62710;BME280;48770;51.624;5.886;2023-03-13T03:41:41;99726.69;;;19.94;37.28
62710;BME280;48770;51.624;5.886;2023-03-13T03:44:07;99729.88;;;19.96;37.42
62710;BME280;48770;51.624;5.886;2023-03-13T03:46:32;99727.91;;;19.97;37.43
62710;BME280;48770;51.624;5.886;2023-03-13T03:48:58;99728.72;;;19.97;37.24
62710;BME280;48770;51.624;5.886;2023-03-13T03:51:23;99725.13;;;19.97;37.31
62710;BME280;48770;51.624;5.886;2023-03-13T03:53:48;99721.56;;;19.96;37.18
62710;BME280;48770;51.624;5.886;2023-03-13T03:56:14;99721.56;;;19.96;37.36
62710;BME280;48770;51.624;5.886;2023-03-13T03:58:39;99712.88;;;19.98;37.36
62710;BME280;48770;51.624;5.886;2023-03-13T04:01:05;99712.06;;;19.97;37.10
62710;BME280;48770;51.624;5.886;2023-03-13T04:03:30;99712.50;;;19.99;37.36
62710;BME280;48770;51.624;5.886;2023-03-13T04:05:56;99724.00;;;20.01;37.20
62710;BME280;48770;51.624;5.886;2023-03-13T04:08:22;99719.25;;;20.02;37.33
62710;BME280;48770;51.624;5.886;2023-03-13T04:10:47;99707.78;;;20.03;37.49
62710;BME280;48770;51.624;5.886;2023-03-13T04:13:13;99706.66;;;20.05;37.12
62710;BME280;48770;51.624;5.886;2023-03-13T04:15:39;99699.91;;;20.06;37.10
62710;BME280;48770;51.624;5.886;2023-03-13T04:18:05;99704.28;;;20.07;37.28
62710;BME280;48770;51.624;5.886;2023-03-13T04:20:31;99695.97;;;20.07;37.30
62710;BME280;48770;51.624;5.886;2023-03-13T04:22:56;99695.59;;;20.08;37.21
62710;BME280;48770;51.624;5.886;2023-03-13T04:25:21;99694.00;;;20.07;37.18
62710;BME280;48770;51.624;5.886;2023-03-13T04:27:47;99706.69;;;20.08;37.13
62710;BME280;48770;51.624;5.886;2023-03-13T04:30:12;99701.16;;;20.08;37.38
62710;BME280;48770;51.624;5.886;2023-03-13T04:32:38;99698.38;;;20.08;37.38
62710;BME280;48770;51.624;5.886;2023-03-13T04:35:03;99690.84;;;20.09;37.19
62710;BME280;48770;51.624;5.886;2023-03-13T04:37:29;99692.44;;;20.10;37.23
62710;BME280;48770;51.624;5.886;2023-03-13T04:39:54;99696.00;;;20.10;37.24
62710;BME280;48770;51.624;5.886;2023-03-13T04:42:19;99691.63;;;20.09;37.29
62710;BME280;48770;51.624;5.886;2023-03-13T04:44:45;99670.25;;;20.10;37.47
62710;BME280;48770;51.624;5.886;2023-03-13T04:47:10;99663.88;;;20.09;37.49
62710;BME280;48770;51.624;5.886;2023-03-13T04:49:35;99662.28;;;20.08;37.43
62710;BME280;48770;51.624;5.886;2023-03-13T04:52:01;99658.34;;;20.09;37.34
62710;BME280;48770;51.624;5.886;2023-03-13T04:54:26;99656.75;;;20.08;37.32
62710;BME280;48770;51.624;5.886;2023-03-13T04:56:51;99650.41;;;20.08;37.54
62710;BME280;48770;51.624;5.886;2023-03-13T04:59:17;99646.44;;;20.09;37.51
62710;BME280;48770;51.624;5.886;2023-03-13T05:01:42;99651.19;;;20.08;37.64
62710;BME280;48770;51.624;5.886;2023-03-13T05:04:09;99636.94;;;20.10;37.57
62710;BME280;48770;51.624;5.886;2023-03-13T05:06:35;99638.13;;;20.09;37.50
62710;BME280;48770;51.624;5.886;2023-03-13T05:09:00;99634.53;;;20.08;37.46
62710;BME280;48770;51.624;5.886;2023-03-13T05:11:25;99640.09;;;20.08;37.42
62710;BME280;48770;51.624;5.886;2023-03-13T05:13:51;99631.78;;;20.08;37.26
62710;BME280;48770;51.624;5.886;2023-03-13T05:16:16;99627.03;;;20.09;37.63
62710;BME280;48770;51.624;5.886;2023-03-13T05:18:41;99626.63;;;20.10;37.21
62710;BME280;48770;51.624;5.886;2023-03-13T05:21:07;99617.94;;;20.12;37.34
62710;BME280;48770;51.624;5.886;2023-03-13T05:23:33;99616.75;;;20.13;37.54
62710;BME280;48770;51.624;5.886;2023-03-13T05:25:59;99615.19;;;20.15;37.67
62710;BME280;48770;51.624;5.886;2023-03-13T05:28:25;99614.03;;;20.16;37.50
62710;BME280;48770;51.624;5.886;2023-03-13T05:30:50;99610.88;;;20.18;37.40
62710;BME280;48770;51.624;5.886;2023-03-13T05:33:16;99609.69;;;20.19;37.51
62710;BME280;48770;51.624;5.886;2023-03-13T05:35:43;99622.00;;;20.21;37.46
62710;BME280;48770;51.624;5.886;2023-03-13T05:38:09;99614.47;;;20.22;37.48
62710;BME280;48770;51.624;5.886;2023-03-13T05:40:34;99614.09;;;20.23;37.52
62710;BME280;48770;51.624;5.886;2023-03-13T05:42:59;99608.19;;;20.25;37.50
62710;BME280;48770;51.624;5.886;2023-03-13T05:45:24;99604.22;;;20.26;37.59
62710;BME280;48770;51.624;5.886;2023-03-13T05:47:50;99622.09;;;20.28;37.26
62710;BME280;48770;51.624;5.886;2023-03-13T05:50:16;99611.00;;;20.28;37.39
62710;BME280;48770;51.624;5.886;2023-03-13T05:52:41;99610.19;;;20.28;37.28
62710;BME280;48770;51.624;5.886;2023-03-13T05:55:07;99623.69;;;20.29;37.31
62710;BME280;48770;51.624;5.886;2023-03-13T05:57:33;99620.56;;;20.31;37.52
62710;BME280;48770;51.624;5.886;2023-03-13T05:59:58;99615.38;;;20.29;37.37
62710;BME280;48770;51.624;5.886;2023-03-13T06:02:24;99611.44;;;20.30;37.47
62710;BME280;48770;51.624;5.886;2023-03-13T06:04:49;99620.56;;;20.31;37.45
62710;BME280;48770;51.624;5.886;2023-03-13T06:07:15;99609.47;;;20.31;37.46
62710;BME280;48770;51.624;5.886;2023-03-13T06:09:40;99612.59;;;20.29;37.47
62710;BME280;48770;51.624;5.886;2023-03-13T06:12:10;99615.00;;;20.31;37.43
62710;BME280;48770;51.624;5.886;2023-03-13T06:14:35;99605.09;;;20.30;37.53
62710;BME280;48770;51.624;5.886;2023-03-13T06:17:03;99608.66;;;20.30;37.27
62710;BME280;48770;51.624;5.886;2023-03-13T06:19:28;99616.19;;;20.30;37.44
62710;BME280;48770;51.624;5.886;2023-03-13T06:21:53;99614.56;;;20.29;37.64
62710;BME280;48770;51.624;5.886;2023-03-13T06:24:19;99618.97;;;20.30;37.48
62710;BME280;48770;51.624;5.886;2023-03-13T06:26:47;99621.28;;;20.28;37.45
62710;BME280;48770;51.624;5.886;2023-03-13T06:29:12;99618.53;;;20.28;37.35
62710;BME280;48770;51.624;5.886;2023-03-13T06:31:37;99614.94;;;20.27;37.61
62710;BME280;48770;51.624;5.886;2023-03-13T06:34:03;99614.16;;;20.27;37.58
62710;BME280;48770;51.624;5.886;2023-03-13T06:36:28;99610.56;;;20.26;37.43
62710;BME280;48770;51.624;5.886;2023-03-13T06:38:53;99598.66;;;20.26;37.72
62710;BME280;48770;51.624;5.886;2023-03-13T06:41:19;99612.16;;;20.27;37.50
62710;BME280;48770;51.624;5.886;2023-03-13T06:43:44;99607.41;;;20.28;37.61
62710;BME280;48770;51.624;5.886;2023-03-13T06:46:18;99600.34;;;20.30;37.58
62710;BME280;48770;51.624;5.886;2023-03-13T06:48:44;99605.09;;;20.30;37.54
62710;BME280;48770;51.624;5.886;2023-03-13T06:51:11;99607.09;;;20.33;37.79
62710;BME280;48770;51.624;5.886;2023-03-13T06:53:37;99595.63;;;20.35;37.83
62710;BME280;48770;51.624;5.886;2023-03-13T06:56:02;99594.44;;;20.36;37.74
62710;BME280;48770;51.624;5.886;2023-03-13T06:58:28;99602.38;;;20.37;37.67
62710;BME280;48770;51.624;5.886;2023-03-13T07:00:53;99601.22;;;20.38;37.58
62710;BME280;48770;51.624;5.886;2023-03-13T07:03:19;99601.66;;;20.40;37.74
62710;BME280;48770;51.624;5.886;2023-03-13T07:05:44;99601.66;;;20.40;37.58
62710;BME280;48770;51.624;5.886;2023-03-13T07:08:09;99600.47;;;20.41;37.67
62710;BME280;48770;51.624;5.886;2023-03-13T07:10:35;99604.84;;;20.42;37.48
62710;BME280;48770;51.624;5.886;2023-03-13T07:13:00;99609.22;;;20.43;37.61
62710;BME280;48770;51.624;5.886;2023-03-13T07:15:25;99600.91;;;20.43;37.60
62710;BME280;48770;51.624;5.886;2023-03-13T07:17:50;99594.53;;;20.43;37.62
62710;BME280;48770;51.624;5.886;2023-03-13T07:20:16;99603.66;;;20.43;37.58
62710;BME280;48770;51.624;5.886;2023-03-13T07:22:41;99589.00;;;20.43;37.49
62710;BME280;48770;51.624;5.886;2023-03-13T07:25:07;99593.75;;;20.42;37.82
62710;BME280;48770;51.624;5.886;2023-03-13T07:27:33;99596.13;;;20.44;37.79
62710;BME280;48770;51.624;5.886;2023-03-13T07:29:59;99596.13;;;20.44;37.68
62710;BME280;48770;51.624;5.886;2023-03-13T07:32:24;99600.09;;;20.43;37.34
62710;BME280;48770;51.624;5.886;2023-03-13T07:34:49;99591.78;;;20.43;37.94
62710;BME280;48770;51.624;5.886;2023-03-13T07:37:15;99586.22;;;20.43;37.66
62710;BME280;48770;51.624;5.886;2023-03-13T07:39:42;99595.34;;;20.43;37.64
62710;BME280;48770;51.624;5.886;2023-03-13T07:42:11;99604.06;;;20.42;37.50
62710;BME280;48770;51.624;5.886;2023-03-13T07:44:36;99595.34;;;20.43;37.66
62710;BME280;48770;51.624;5.886;2023-03-13T07:47:02;99593.75;;;20.42;37.56
62710;BME280;48770;51.624;5.886;2023-03-13T07:49:28;99590.97;;;20.42;37.72
62710;BME280;48770;51.624;5.886;2023-03-13T07:51:54;99592.94;;;20.42;37.58
62710;BME280;48770;51.624;5.886;2023-03-13T07:54:19;99583.81;;;20.41;37.79
62710;BME280;48770;51.624;5.886;2023-03-13T07:56:45;99581.84;;;20.42;37.69
62710;BME280;48770;51.624;5.886;2023-03-13T07:59:10;99586.59;;;20.41;37.58
62710;BME280;48770;51.624;5.886;2023-03-13T08:01:35;99592.94;;;20.42;37.74
62710;BME280;48770;51.624;5.886;2023-03-13T08:04:01;99597.31;;;20.43;37.72
62710;BME280;48770;51.624;5.886;2023-03-13T08:06:29;99588.59;;;20.44;37.57
62710;BME280;48770;51.624;5.886;2023-03-13T08:08:58;99591.00;;;20.46;37.77
62710;BME280;48770;51.624;5.886;2023-03-13T08:11:25;99589.03;;;20.46;37.90
62710;BME280;48770;51.624;5.886;2023-03-13T08:13:52;99593.03;;;20.49;37.68
62710;BME280;48770;51.624;5.886;2023-03-13T08:16:28;99602.16;;;20.49;37.54
62710;BME280;48770;51.624;5.886;2023-03-13T08:18:56;99592.63;;;20.50;37.68
62710;BME280;48770;51.624;5.886;2023-03-13T08:21:44;99582.75;;;20.53;37.56
62710;BME280;48770;51.624;5.886;2023-03-13T08:24:10;99589.09;;;20.53;37.68
62710;BME280;48770;51.624;5.886;2023-03-13T08:26:39;99584.41;;;20.57;37.59
62710;BME280;48770;51.624;5.886;2023-03-13T08:29:08;99577.66;;;20.58;37.44
62710;BME280;48770;51.624;5.886;2023-03-13T08:31:36;99575.31;;;20.60;37.47
62710;BME280;48770;51.624;5.886;2023-03-13T08:34:02;99573.34;;;20.61;37.72
62710;BME280;48770;51.624;5.886;2023-03-13T08:36:32;99572.16;;;20.62;37.46
62710;BME280;48770;51.624;5.886;2023-03-13T08:39:00;99566.22;;;20.63;37.56
62710;BME280;48770;51.624;5.886;2023-03-13T08:41:28;99568.56;;;20.61;37.45
62710;BME280;48770;51.624;5.886;2023-03-13T08:43:55;99563.44;;;20.63;37.45
62710;BME280;48770;51.624;5.886;2023-03-13T08:46:21;99557.88;;;20.63;37.81
62710;BME280;48770;51.624;5.886;2023-03-13T08:48:48;99569.78;;;20.64;37.48
62710;BME280;48770;51.624;5.886;2023-03-13T08:51:14;99567.00;;;20.64;37.49
62710;BME280;48770;51.624;5.886;2023-03-13T08:53:41;99568.59;;;20.65;37.55
62710;BME280;48770;51.624;5.886;2023-03-13T08:56:09;99559.09;;;20.66;37.43
62710;BME280;48770;51.624;5.886;2023-03-13T08:58:35;99560.69;;;20.67;37.43
62710;BME280;48770;51.624;5.886;2023-03-13T09:01:06;99557.13;;;20.67;37.37
62710;BME280;48770;51.624;5.886;2023-03-13T09:03:32;99547.19;;;20.66;37.63
62710;BME280;48770;51.624;5.886;2023-03-13T09:05:59;99540.44;;;20.67;37.34
62710;BME280;48770;51.624;5.886;2023-03-13T09:08:24;99542.03;;;20.68;37.65
62710;BME280;48770;51.624;5.886;2023-03-13T09:10:58;99542.44;;;20.66;37.46
62710;BME280;48770;51.624;5.886;2023-03-13T09:13:25;99551.56;;;20.67;37.63
62710;BME280;48770;51.624;5.886;2023-03-13T09:15:55;99549.56;;;20.67;37.49
62710;BME280;48770;51.624;5.886;2023-03-13T09:18:20;99551.56;;;20.67;37.38
62710;BME280;48770;51.624;5.886;2023-03-13T09:20:46;99559.09;;;20.66;37.58
62710;BME280;48770;51.624;5.886;2023-03-13T09:23:11;99543.22;;;20.67;37.48
62710;BME280;48770;51.624;5.886;2023-03-13T09:25:37;99548.41;;;20.68;37.59
62710;BME280;48770;51.624;5.886;2023-03-13T09:28:04;99536.09;;;20.69;37.45
62710;BME280;48770;51.624;5.886;2023-03-13T09:30:29;99527.78;;;20.69;37.74
62710;BME280;48770;51.624;5.886;2023-03-13T09:32:54;99533.72;;;20.68;37.72
62710;BME280;48770;51.624;5.886;2023-03-13T09:35:20;99525.78;;;20.70;37.81
62710;BME280;48770;51.624;5.886;2023-03-13T09:37:45;99523.81;;;20.70;37.71
62710;BME280;48770;51.624;5.886;2023-03-13T09:40:16;99514.69;;;20.70;37.49
62710;BME280;48770;51.624;5.886;2023-03-13T09:42:49;99505.97;;;20.71;37.35
62710;BME280;48770;51.624;5.886;2023-03-13T09:45:31;99504.38;;;20.70;37.54
62710;BME280;48770;51.624;5.886;2023-03-13T09:51:02;99496.03;;;20.70;37.44
62710;BME280;48770;51.624;5.886;2023-03-13T09:53:37;99496.03;;;20.70;37.61
62710;BME280;48770;51.624;5.886;2023-03-13T09:56:12;99486.53;;;20.71;37.73
62710;BME280;48770;51.624;5.886;2023-03-13T09:58:53;99474.22;;;20.72;37.70
62710;BME280;48770;51.624;5.886;2023-03-13T10:01:22;99467.88;;;20.72;37.66
62710;BME280;48770;51.624;5.886;2023-03-13T10:06:24;99460.75;;;20.74;37.49
62710;BME280;48770;51.624;5.886;2023-03-13T10:08:51;99469.09;;;20.78;37.56
62710;BME280;48770;51.624;5.886;2023-03-13T10:11:27;99465.53;;;20.77;37.79
62710;BME280;48770;51.624;5.886;2023-03-13T10:14:02;99460.78;;;20.78;37.74
62710;BME280;48770;51.624;5.886;2023-03-13T10:16:37;99459.19;;;20.77;37.61
62710;BME280;48770;51.624;5.886;2023-03-13T10:19:34;99462.34;;;20.75;37.59
62710;BME280;48770;51.624;5.886;2023-03-13T10:22:03;99467.50;;;20.77;37.88
62710;BME280;48770;51.624;5.886;2023-03-13T10:24:44;99451.09;;;20.57;37.91
62710;BME280;48770;51.624;5.886;2023-03-13T10:27:13;99444.84;;;20.71;37.88
62710;BME280;48770;51.624;5.886;2023-03-13T10:29:38;99450.84;;;20.77;37.49
62710;BME280;48770;51.624;5.886;2023-03-13T10:32:05;99455.63;;;20.80;37.83
62710;BME280;48770;51.624;5.886;2023-03-13T10:34:45;99443.31;;;20.81;37.56
62710;BME280;48770;51.624;5.886;2023-03-13T10:37:14;99441.34;;;20.81;37.92
62710;BME280;48770;51.624;5.886;2023-03-13T10:39:40;99451.31;;;20.82;37.85
62710;BME280;48770;51.624;5.886;2023-03-13T10:42:10;99451.31;;;20.82;37.89
62710;BME280;48770;51.624;5.886;2023-03-13T10:44:42;99425.50;;;20.82;37.99
62710;BME280;48770;51.624;5.886;2023-03-13T10:47:11;99448.16;;;20.84;38.14
62710;BME280;48770;51.624;5.886;2023-03-13T10:49:49;99450.91;;;20.84;37.93
62710;BME280;48770;51.624;5.886;2023-03-13T10:52:45;99459.63;;;20.82;37.72
62710;BME280;48770;51.624;5.886;2023-03-13T10:55:17;99439.41;;;20.85;37.86
62710;BME280;48770;51.624;5.886;2023-03-13T10:57:58;99424.34;;;20.86;37.94
62710;BME280;48770;51.624;5.886;2023-03-13T11:00:38;99425.13;;;20.87;37.87
62710;BME280;48770;51.624;5.886;2023-03-13T11:03:12;99422.78;;;20.89;37.84
62710;BME280;48770;51.624;5.886;2023-03-13T11:05:40;99414.84;;;20.91;37.58
62710;BME280;48770;51.624;5.886;2023-03-13T11:08:19;99409.28;;;20.91;37.65
62710;BME280;48770;51.624;5.886;2023-03-13T11:10:57;99402.53;;;20.92;37.83
62710;BME280;48770;51.624;5.886;2023-03-13T11:13:33;99409.69;;;20.93;37.88
62710;BME280;48770;51.624;5.886;2023-03-13T11:27:25;99402.53;;;20.92;38.06
62710;BME280;48770;51.624;5.886;2023-03-13T11:30:00;99395.81;;;20.93;37.90
62710;BME280;48770;51.624;5.886;2023-03-13T11:32:55;99385.47;;;20.93;37.71
62710;BME280;48770;51.624;5.886;2023-03-13T11:38:05;99391.84;;;20.98;37.71
62710;BME280;48770;51.624;5.886;2023-03-13T11:41:23;99381.53;;;20.98;38.00
62710;BME280;48770;51.624;5.886;2023-03-13T11:49:21;99372.78;;;20.96;38.11
62710;BME280;48770;51.624;5.886;2023-03-13T11:52:12;99378.75;;;20.94;37.96
62710;BME280;48770;51.624;5.886;2023-03-13T11:57:26;99376.78;;;20.99;37.99
62710;BME280;48770;51.624;5.886;2023-03-13T12:00:13;99368.03;;;21.00;37.73
62710;BME280;48770;51.624;5.886;2023-03-13T12:05:19;99358.53;;;21.05;37.90
62710;BME280;48770;51.624;5.886;2023-03-13T12:07:53;99347.03;;;21.06;38.06
62710;BME280;48770;51.624;5.886;2023-03-13T12:13:22;99333.13;;;21.06;37.69
62710;BME280;48770;51.624;5.886;2023-03-13T12:15:56;99329.16;;;21.07;38.04
62710;BME280;48770;51.624;5.886;2023-03-13T12:18:36;99326.03;;;21.09;38.02
62710;BME280;48770;51.624;5.886;2023-03-13T12:24:07;99317.28;;;21.10;38.06
62710;BME280;48770;51.624;5.886;2023-03-13T12:26:44;99311.75;;;21.10;37.96
62710;BME280;48770;51.624;5.886;2023-03-13T12:31:56;99298.25;;;21.12;38.01
62710;BME280;48770;51.624;5.886;2023-03-13T12:34:28;99290.69;;;21.13;38.00
62710;BME280;48770;51.624;5.886;2023-03-13T12:39:45;99285.50;;;21.04;38.11
62710;BME280;48770;51.624;5.886;2023-03-13T12:44:58;99288.31;;;21.11;38.20
62710;BME280;48770;51.624;5.886;2023-03-13T12:47:32;99272.84;;;21.14;37.85
62710;BME280;48770;51.624;5.886;2023-03-13T12:50:23;99268.88;;;21.15;37.84
62710;BME280;48770;51.624;5.886;2023-03-13T12:58:52;99283.56;;;21.12;37.87
62710;BME280;48770;51.624;5.886;2023-03-13T13:04:00;99273.63;;;21.14;37.96
62710;BME280;48770;51.624;5.886;2023-03-13T13:06:48;99265.69;;;21.16;37.89
62710;BME280;48770;51.624;5.886;2023-03-13T13:09:20;99271.66;;;21.15;37.86
62710;BME280;48770;51.624;5.886;2023-03-13T13:11:48;99247.44;;;21.15;38.11
62710;BME280;48770;51.624;5.886;2023-03-13T13:25:33;99253.44;;;21.24;37.80
62710;BME280;48770;51.624;5.886;2023-03-13T13:28:23;99245.50;;;21.27;37.90
62710;BME280;48770;51.624;5.886;2023-03-13T13:30:53;99256.22;;;21.32;37.74
62710;BME280;48770;51.624;5.886;2023-03-13T13:35:46;99226.47;;;21.39;37.56
62710;BME280;48770;51.624;5.886;2023-03-13T13:38:31;99237.19;;;21.41;38.03
62710;BME280;48770;51.624;5.886;2023-03-13T13:43:34;99239.97;;;21.48;37.82
62710;BME280;48770;51.624;5.886;2023-03-13T13:46:05;99252.28;;;21.50;38.07
62710;BME280;48770;51.624;5.886;2023-03-13T13:48:41;99241.97;;;21.51;38.18
62710;BME280;48770;51.624;5.886;2023-03-13T13:53:53;99239.56;;;21.53;37.93
62710;BME280;48770;51.624;5.886;2023-03-13T13:59:05;99213.78;;;21.63;38.25
62710;BME280;48770;51.624;5.886;2023-03-13T14:01:40;99196.69;;;21.68;38.14
62710;BME280;48770;51.624;5.886;2023-03-13T14:04:14;99208.59;;;21.72;37.80
62710;BME280;48770;51.624;5.886;2023-03-13T14:06:43;99211.78;;;21.74;38.05
62710;BME280;48770;51.624;5.886;2023-03-13T14:11:47;99202.25;;;21.86;38.18
62710;BME280;48770;51.624;5.886;2023-03-13T14:14:17;99199.84;;;21.92;37.73
62710;BME280;48770;51.624;5.886;2023-03-13T14:16:50;99193.09;;;21.93;37.68
62710;BME280;48770;51.624;5.886;2023-03-13T14:19:29;99185.94;;;21.92;37.84
62710;BME280;48770;51.624;5.886;2023-03-13T14:22:06;99182.34;;;21.95;37.88
62710;BME280;48770;51.624;5.886;2023-03-13T14:24:32;99170.03;;;21.96;38.00
62710;BME280;48770;51.624;5.886;2023-03-13T14:26:58;99193.06;;;22.00;38.03
62710;BME280;48770;51.624;5.886;2023-03-13T14:29:24;99185.13;;;22.05;37.83
62710;BME280;48770;51.624;5.886;2023-03-13T14:31:58;99179.97;;;22.07;37.69
62710;BME280;48770;51.624;5.886;2023-03-13T14:34:23;99180.78;;;21.87;38.29
62710;BME280;48770;51.624;5.886;2023-03-13T14:39:35;99167.25;;;22.13;37.97